sensor_id;sensor_type;location;lat;lon;timestamp;temperature;humidity
48936;DHT22;34745;52.276;10.528;2023-05-10T00:01:36;14.50;1.00
48936;DHT22;34745;52.276;10.528;2023-05-10T00:04:03;14.50;1.00
48936;DHT22;34745;52.276;10.528;2023-05-10T00:06:32;14.50;1.00
48936;DHT22;34745;52.276;10.528;2023-05-10T00:08:59;14.50;1.00
48936;DHT22;34745;52.276;10.528;2023-05-10T00:11:26;14.50;1.00
48936;DHT22;34745;52.276;10.528;2023-05-10T00:13:53;14.40;1.00
48936;DHT22;34745;52.276;10.528;2023-05-10T00:16:20;14.40;1.00
48936;DHT22;34745;52.276;10.528;2023-05-10T00:18:47;14.40;1.00
48936;DHT22;34745;52.276;10.528;2023-05-10T00:21:14;14.40;1.00
48936;DHT22;34745;52.276;10.528;2023-05-10T00:23:42;14.40;1.00
48936;DHT22;34745;52.276;10.528;2023-05-10T00:26:10;14.30;1.00
48936;DHT22;34745;52.276;10.528;2023-05-10T00:28:36;14.30;1.00
48936;DHT22;34745;52.276;10.528;2023-05-10T00:31:04;14.30;1.00
48936;DHT22;34745;52.276;10.528;2023-05-10T00:33:31;14.40;1.00
48936;DHT22;34745;52.276;10.528;2023-05-10T00:35:58;14.30;1.00
48936;DHT22;34745;52.276;10.528;2023-05-10T00:38:24;14.30;1.00
48936;DHT22;34745;52.276;10.528;2023-05-10T00:40:53;14.30;1.00
48936;DHT22;34745;52.276;10.528;2023-05-10T00:43:20;14.30;1.00
48936;DHT22;34745;52.276;10.528;2023-05-10T00:45:47;14.30;1.00
48936;DHT22;34745;52.276;10.528;2023-05-10T00:48:14;14.20;1.00
48936;DHT22;34745;52.276;10.528;2023-05-10T00:50:41;14.20;1.00
48936;DHT22;34745;52.276;10.528;2023-05-10T00:53:08;14.20;1.00
48936;DHT22;34745;52.276;10.528;2023-05-10T00:55:36;14.10;1.00
48936;DHT22;34745;52.276;10.528;2023-05-10T00:58:05;14.10;1.00
48936;DHT22;34745;52.276;10.528;2023-05-10T01:00:33;14.20;1.00
48936;DHT22;34745;52.276;10.528;2023-05-10T01:03:00;14.20;1.00
48936;DHT22;34745;52.276;10.528;2023-05-10T01:05:28;14.20;1.00
48936;DHT22;34745;52.276;10.528;2023-05-10T01:07:56;14.20;1.00
48936;DHT22;34745;52.276;10.528;2023-05-10T01:10:23;14.10;1.00
48936;DHT22;34745;52.276;10.528;2023-05-10T01:12:50;14.10;1.00
48936;DHT22;34745;52.276;10.528;2023-05-10T01:15:20;14.10;1.00
48936;DHT22;34745;52.276;10.528;2023-05-10T01:17:48;14.00;1.00
48936;DHT22;34745;52.276;10.528;2023-05-10T01:20:15;14.00;1.00
48936;DHT22;34745;52.276;10.528;2023-05-10T01:22:57;14.00;1.00
48936;DHT22;34745;52.276;10.528;2023-05-10T01:25:40;13.90;1.00
48936;DHT22;34745;52.276;10.528;2023-05-10T01:28:25;13.90;1.00
48936;DHT22;34745;52.276;10.528;2023-05-10T01:31:21;13.90;1.00
48936;DHT22;34745;52.276;10.528;2023-05-10T01:33:54;13.90;1.00
48936;DHT22;34745;52.276;10.528;2023-05-10T01:36:26;13.90;1.00
48936;DHT22;34745;52.276;10.528;2023-05-10T01:39:02;13.90;1.00
48936;DHT22;34745;52.276;10.528;2023-05-10T01:41:38;13.90;1.00
48936;DHT22;34745;52.276;10.528;2023-05-10T01:44:13;13.90;1.00
48936;DHT22;34745;52.276;10.528;2023-05-10T01:46:41;13.90;1.00
48936;DHT22;34745;52.276;10.528;2023-05-10T01:49:16;13.90;1.00
48936;DHT22;34745;52.276;10.528;2023-05-10T01:51:50;13.90;1.00
48936;DHT22;34745;52.276;10.528;2023-05-10T01:54:19;13.80;1.00
48936;DHT22;34745;52.276;10.528;2023-05-10T01:56:50;13.80;1.00
48936;DHT22;34745;52.276;10.528;2023-05-10T01:59:19;13.80;1.00
48936;DHT22;34745;52.276;10.528;2023-05-10T02:01:48;13.70;1.00
48936;DHT22;34745;52.276;10.528;2023-05-10T02:04:19;13.70;1.00
48936;DHT22;34745;52.276;10.528;2023-05-10T02:06:48;13.70;1.00
48936;DHT22;34745;52.276;10.528;2023-05-10T02:09:17;13.70;1.00
48936;DHT22;34745;52.276;10.528;2023-05-10T02:11:47;13.60;1.00
48936;DHT22;34745;52.276;10.528;2023-05-10T02:14:15;13.60;1.00
48936;DHT22;34745;52.276;10.528;2023-05-10T02:16:44;13.60;1.00
48936;DHT22;34745;52.276;10.528;2023-05-10T02:19:12;13.60;1.00
48936;DHT22;34745;52.276;10.528;2023-05-10T02:21:43;13.60;1.00
48936;DHT22;34745;52.276;10.528;2023-05-10T02:24:11;13.50;1.00
48936;DHT22;34745;52.276;10.528;2023-05-10T02:26:39;13.60;1.00
48936;DHT22;34745;52.276;10.528;2023-05-10T02:29:07;13.50;1.00
48936;DHT22;34745;52.276;10.528;2023-05-10T02:31:35;13.50;1.00
48936;DHT22;34745;52.276;10.528;2023-05-10T02:34:02;13.50;1.00
48936;DHT22;34745;52.276;10.528;2023-05-10T02:36:31;13.60;1.00
48936;DHT22;34745;52.276;10.528;2023-05-10T02:39:01;13.50;1.00
48936;DHT22;34745;52.276;10.528;2023-05-10T02:41:31;13.50;1.00
48936;DHT22;34745;52.276;10.528;2023-05-10T02:44:01;13.50;1.00
48936;DHT22;34745;52.276;10.528;2023-05-10T02:46:30;13.50;1.00
48936;DHT22;34745;52.276;10.528;2023-05-10T02:48:57;13.40;1.00
48936;DHT22;34745;52.276;10.528;2023-05-10T02:51:28;13.40;1.00
48936;DHT22;34745;52.276;10.528;2023-05-10T02:54:19;13.40;1.00
48936;DHT22;34745;52.276;10.528;2023-05-10T02:56:50;13.30;1.00
48936;DHT22;34745;52.276;10.528;2023-05-10T02:59:17;13.30;1.00
48936;DHT22;34745;52.276;10.528;2023-05-10T03:01:44;13.30;1.00
48936;DHT22;34745;52.276;10.528;2023-05-10T03:04:11;13.20;1.00
48936;DHT22;34745;52.276;10.528;2023-05-10T03:06:38;13.20;1.00
48936;DHT22;34745;52.276;10.528;2023-05-10T03:09:07;13.20;1.00
48936;DHT22;34745;52.276;10.528;2023-05-10T03:11:47;13.20;1.00
48936;DHT22;34745;52.276;10.528;2023-05-10T03:14:21;13.10;1.00
48936;DHT22;34745;52.276;10.528;2023-05-10T03:16:56;13.20;1.00
48936;DHT22;34745;52.276;10.528;2023-05-10T03:19:29;13.10;1.00
48936;DHT22;34745;52.276;10.528;2023-05-10T03:22:00;13.20;1.00
48936;DHT22;34745;52.276;10.528;2023-05-10T03:24:33;13.10;1.00
48936;DHT22;34745;52.276;10.528;2023-05-10T03:27:02;13.10;1.00
48936;DHT22;34745;52.276;10.528;2023-05-10T03:29:31;13.10;1.00
48936;DHT22;34745;52.276;10.528;2023-05-10T03:31:59;13.20;1.00
48936;DHT22;34745;52.276;10.528;2023-05-10T03:34:26;13.10;1.00
48936;DHT22;34745;52.276;10.528;2023-05-10T03:36:53;13.10;1.00
48936;DHT22;34745;52.276;10.528;2023-05-10T03:39:20;13.10;1.00
48936;DHT22;34745;52.276;10.528;2023-05-10T03:41:49;13.10;1.00
48936;DHT22;34745;52.276;10.528;2023-05-10T03:44:17;13.10;1.00
48936;DHT22;34745;52.276;10.528;2023-05-10T03:46:45;13.00;1.00
48936;DHT22;34745;52.276;10.528;2023-05-10T03:49:12;13.00;1.00
48936;DHT22;34745;52.276;10.528;2023-05-10T03:51:39;13.00;1.00
48936;DHT22;34745;52.276;10.528;2023-05-10T03:54:06;13.00;1.00
48936;DHT22;34745;52.276;10.528;2023-05-10T03:56:33;13.00;1.00
48936;DHT22;34745;52.276;10.528;2023-05-10T03:59:01;13.00;1.00
48936;DHT22;34745;52.276;10.528;2023-05-10T04:01:28;13.00;1.00
48936;DHT22;34745;52.276;10.528;2023-05-10T04:03:55;12.90;1.00
48936;DHT22;34745;52.276;10.528;2023-05-10T04:06:23;13.00;1.00
48936;DHT22;34745;52.276;10.528;2023-05-10T04:08:50;12.90;1.00
48936;DHT22;34745;52.276;10.528;2023-05-10T04:11:17;13.00;1.00
48936;DHT22;34745;52.276;10.528;2023-05-10T04:13:44;13.00;1.00
48936;DHT22;34745;52.276;10.528;2023-05-10T04:16:12;13.00;1.00
48936;DHT22;34745;52.276;10.528;2023-05-10T04:18:39;13.00;1.00
48936;DHT22;34745;52.276;10.528;2023-05-10T04:21:11;13.00;1.00
48936;DHT22;34745;52.276;10.528;2023-05-10T04:23:38;13.00;1.00
48936;DHT22;34745;52.276;10.528;2023-05-10T04:26:05;13.00;1.00
48936;DHT22;34745;52.276;10.528;2023-05-10T04:28:33;13.00;1.00
48936;DHT22;34745;52.276;10.528;2023-05-10T04:31:03;13.00;1.00
48936;DHT22;34745;52.276;10.528;2023-05-10T04:33:32;13.10;1.00
48936;DHT22;34745;52.276;10.528;2023-05-10T04:36:00;13.10;1.00
48936;DHT22;34745;52.276;10.528;2023-05-10T04:38:28;13.10;1.00
48936;DHT22;34745;52.276;10.528;2023-05-10T04:41:03;13.10;1.00
48936;DHT22;34745;52.276;10.528;2023-05-10T04:43:31;13.00;1.00
48936;DHT22;34745;52.276;10.528;2023-05-10T04:45:58;13.00;1.00
48936;DHT22;34745;52.276;10.528;2023-05-10T04:48:25;12.90;1.00
48936;DHT22;34745;52.276;10.528;2023-05-10T04:50:53;12.90;1.00
48936;DHT22;34745;52.276;10.528;2023-05-10T04:53:20;12.90;1.00
48936;DHT22;34745;52.276;10.528;2023-05-10T04:55:48;12.90;1.00
48936;DHT22;34745;52.276;10.528;2023-05-10T04:58:15;12.90;1.00
48936;DHT22;34745;52.276;10.528;2023-05-10T05:00:42;12.90;1.00
48936;DHT22;34745;52.276;10.528;2023-05-10T05:03:10;12.80;1.00
48936;DHT22;34745;52.276;10.528;2023-05-10T05:05:38;12.70;1.00
48936;DHT22;34745;52.276;10.528;2023-05-10T05:08:06;12.70;1.00
48936;DHT22;34745;52.276;10.528;2023-05-10T05:10:33;12.60;1.00
48936;DHT22;34745;52.276;10.528;2023-05-10T05:13:00;12.70;1.00
48936;DHT22;34745;52.276;10.528;2023-05-10T05:15:27;12.70;1.00
48936;DHT22;34745;52.276;10.528;2023-05-10T05:17:54;12.70;1.00
48936;DHT22;34745;52.276;10.528;2023-05-10T05:20:21;12.70;1.00
48936;DHT22;34745;52.276;10.528;2023-05-10T05:22:48;12.70;1.00
48936;DHT22;34745;52.276;10.528;2023-05-10T05:25:16;12.60;1.00
48936;DHT22;34745;52.276;10.528;2023-05-10T05:27:43;12.70;1.00
48936;DHT22;34745;52.276;10.528;2023-05-10T05:30:11;12.70;1.00
48936;DHT22;34745;52.276;10.528;2023-05-10T05:32:38;12.80;1.00
48936;DHT22;34745;52.276;10.528;2023-05-10T05:35:05;12.80;1.00
48936;DHT22;34745;52.276;10.528;2023-05-10T05:37:32;12.80;1.00
48936;DHT22;34745;52.276;10.528;2023-05-10T05:39:59;12.90;1.00
48936;DHT22;34745;52.276;10.528;2023-05-10T05:42:31;12.90;1.00
48936;DHT22;34745;52.276;10.528;2023-05-10T05:44:57;13.00;1.00
48936;DHT22;34745;52.276;10.528;2023-05-10T05:47:24;13.00;1.00
48936;DHT22;34745;52.276;10.528;2023-05-10T05:49:52;12.90;1.00
48936;DHT22;34745;52.276;10.528;2023-05-10T05:52:18;12.90;1.00
48936;DHT22;34745;52.276;10.528;2023-05-10T05:54:46;12.80;1.00
48936;DHT22;34745;52.276;10.528;2023-05-10T05:57:13;12.90;1.00
48936;DHT22;34745;52.276;10.528;2023-05-10T05:59:41;13.00;1.00
48936;DHT22;34745;52.276;10.528;2023-05-10T06:02:10;13.10;1.00
48936;DHT22;34745;52.276;10.528;2023-05-10T06:04:37;13.20;1.00
48936;DHT22;34745;52.276;10.528;2023-05-10T06:07:08;13.30;1.00
48936;DHT22;34745;52.276;10.528;2023-05-10T06:09:35;13.30;1.00
48936;DHT22;34745;52.276;10.528;2023-05-10T06:12:02;13.40;1.00
48936;DHT22;34745;52.276;10.528;2023-05-10T06:14:29;13.40;1.00
48936;DHT22;34745;52.276;10.528;2023-05-10T06:16:58;13.50;1.00
48936;DHT22;34745;52.276;10.528;2023-05-10T06:19:26;13.50;1.00
48936;DHT22;34745;52.276;10.528;2023-05-10T06:21:54;13.50;1.00
48936;DHT22;34745;52.276;10.528;2023-05-10T06:24:21;13.50;1.00
48936;DHT22;34745;52.276;10.528;2023-05-10T06:26:48;13.50;1.00
48936;DHT22;34745;52.276;10.528;2023-05-10T06:29:16;13.60;1.00
48936;DHT22;34745;52.276;10.528;2023-05-10T06:31:43;13.60;1.00
48936;DHT22;34745;52.276;10.528;2023-05-10T06:34:11;13.70;1.00
48936;DHT22;34745;52.276;10.528;2023-05-10T06:36:39;13.70;1.00
48936;DHT22;34745;52.276;10.528;2023-05-10T06:39:06;13.70;1.00
48936;DHT22;34745;52.276;10.528;2023-05-10T06:41:33;13.80;1.00
48936;DHT22;34745;52.276;10.528;2023-05-10T06:44:00;13.80;1.00
48936;DHT22;34745;52.276;10.528;2023-05-10T06:46:27;13.70;1.00
48936;DHT22;34745;52.276;10.528;2023-05-10T06:48:54;13.60;1.00
48936;DHT22;34745;52.276;10.528;2023-05-10T06:51:22;13.60;1.00
48936;DHT22;34745;52.276;10.528;2023-05-10T06:53:49;13.60;1.00
48936;DHT22;34745;52.276;10.528;2023-05-10T06:56:16;13.40;1.00
48936;DHT22;34745;52.276;10.528;2023-05-10T06:58:43;13.20;1.00
48936;DHT22;34745;52.276;10.528;2023-05-10T07:01:10;13.00;1.00
48936;DHT22;34745;52.276;10.528;2023-05-10T07:03:38;12.90;1.00
48936;DHT22;34745;52.276;10.528;2023-05-10T07:06:05;12.90;1.00
48936;DHT22;34745;52.276;10.528;2023-05-10T07:08:42;12.80;1.00
48936;DHT22;34745;52.276;10.528;2023-05-10T07:11:09;12.80;1.00
48936;DHT22;34745;52.276;10.528;2023-05-10T07:13:39;12.90;1.00
48936;DHT22;34745;52.276;10.528;2023-05-10T07:16:10;12.90;11.80
48936;DHT22;34745;52.276;10.528;2023-05-10T07:18:37;13.20;26.30
48936;DHT22;34745;52.276;10.528;2023-05-10T07:21:06;13.30;17.10
48936;DHT22;34745;52.276;10.528;2023-05-10T07:23:33;13.50;13.60
48936;DHT22;34745;52.276;10.528;2023-05-10T07:26:01;13.70;8.00
48936;DHT22;34745;52.276;10.528;2023-05-10T07:28:28;13.50;1.00
48936;DHT22;34745;52.276;10.528;2023-05-10T07:30:56;13.60;18.20
48936;DHT22;34745;52.276;10.528;2023-05-10T07:33:23;13.40;15.20
48936;DHT22;34745;52.276;10.528;2023-05-10T07:35:50;13.30;25.50
48936;DHT22;34745;52.276;10.528;2023-05-10T07:38:17;13.20;50.40
48936;DHT22;34745;52.276;10.528;2023-05-10T07:40:44;13.30;68.30
48936;DHT22;34745;52.276;10.528;2023-05-10T07:43:12;13.20;84.10
48936;DHT22;34745;52.276;10.528;2023-05-10T07:45:40;13.30;99.90
48936;DHT22;34745;52.276;10.528;2023-05-10T07:48:07;13.20;99.40
48936;DHT22;34745;52.276;10.528;2023-05-10T07:50:34;13.10;99.90
48936;DHT22;34745;52.276;10.528;2023-05-10T07:53:01;13.00;99.90
48936;DHT22;34745;52.276;10.528;2023-05-10T07:55:28;12.90;99.90
48936;DHT22;34745;52.276;10.528;2023-05-10T07:57:55;12.70;99.90
48936;DHT22;34745;52.276;10.528;2023-05-10T08:00:24;12.80;99.90
48936;DHT22;34745;52.276;10.528;2023-05-10T08:02:51;12.80;99.90
48936;DHT22;34745;52.276;10.528;2023-05-10T08:05:18;13.00;99.90
48936;DHT22;34745;52.276;10.528;2023-05-10T08:07:45;13.10;99.90
48936;DHT22;34745;52.276;10.528;2023-05-10T08:10:12;13.20;99.90
48936;DHT22;34745;52.276;10.528;2023-05-10T08:12:39;13.40;99.90
48936;DHT22;34745;52.276;10.528;2023-05-10T08:15:08;13.50;99.90
48936;DHT22;34745;52.276;10.528;2023-05-10T08:17:36;13.70;99.90
48936;DHT22;34745;52.276;10.528;2023-05-10T08:20:04;13.90;99.90
48936;DHT22;34745;52.276;10.528;2023-05-10T08:22:31;14.00;99.90
48936;DHT22;34745;52.276;10.528;2023-05-10T08:24:59;14.00;99.90
48936;DHT22;34745;52.276;10.528;2023-05-10T08:27:25;14.00;99.90
48936;DHT22;34745;52.276;10.528;2023-05-10T08:29:52;14.00;99.90
48936;DHT22;34745;52.276;10.528;2023-05-10T08:32:19;13.90;99.90
48936;DHT22;34745;52.276;10.528;2023-05-10T08:34:48;13.90;99.90
48936;DHT22;34745;52.276;10.528;2023-05-10T08:37:15;14.00;99.90
48936;DHT22;34745;52.276;10.528;2023-05-10T08:39:42;13.90;99.90
48936;DHT22;34745;52.276;10.528;2023-05-10T08:42:09;13.80;99.90
48936;DHT22;34745;52.276;10.528;2023-05-10T08:44:36;13.90;99.90
48936;DHT22;34745;52.276;10.528;2023-05-10T08:47:05;14.00;99.90
48936;DHT22;34745;52.276;10.528;2023-05-10T08:49:33;14.00;99.90
48936;DHT22;34745;52.276;10.528;2023-05-10T08:52:04;13.80;99.90
48936;DHT22;34745;52.276;10.528;2023-05-10T08:54:33;13.70;99.90
48936;DHT22;34745;52.276;10.528;2023-05-10T08:57:01;13.80;99.90
48936;DHT22;34745;52.276;10.528;2023-05-10T08:59:28;13.70;99.90
48936;DHT22;34745;52.276;10.528;2023-05-10T09:01:57;13.90;99.90
48936;DHT22;34745;52.276;10.528;2023-05-10T09:04:24;14.00;99.90
48936;DHT22;34745;52.276;10.528;2023-05-10T09:06:52;14.00;99.90
48936;DHT22;34745;52.276;10.528;2023-05-10T09:09:21;14.00;99.90
48936;DHT22;34745;52.276;10.528;2023-05-10T09:11:49;14.10;99.90
48936;DHT22;34745;52.276;10.528;2023-05-10T09:14:16;14.20;99.90
48936;DHT22;34745;52.276;10.528;2023-05-10T09:16:44;14.20;99.90
48936;DHT22;34745;52.276;10.528;2023-05-10T09:19:11;14.20;99.90
48936;DHT22;34745;52.276;10.528;2023-05-10T09:21:38;14.00;99.90
48936;DHT22;34745;52.276;10.528;2023-05-10T09:24:06;13.90;99.90
48936;DHT22;34745;52.276;10.528;2023-05-10T09:26:35;13.90;99.90
48936;DHT22;34745;52.276;10.528;2023-05-10T09:29:03;13.90;99.90
48936;DHT22;34745;52.276;10.528;2023-05-10T09:31:48;14.00;99.90
48936;DHT22;34745;52.276;10.528;2023-05-10T09:34:18;13.90;99.90
48936;DHT22;34745;52.276;10.528;2023-05-10T09:36:53;14.00;99.90
48936;DHT22;34745;52.276;10.528;2023-05-10T09:39:20;13.90;99.90
48936;DHT22;34745;52.276;10.528;2023-05-10T09:41:48;13.90;99.90
48936;DHT22;34745;52.276;10.528;2023-05-10T09:44:18;13.80;99.90
48936;DHT22;34745;52.276;10.528;2023-05-10T09:46:50;13.80;99.90
48936;DHT22;34745;52.276;10.528;2023-05-10T09:49:18;13.80;99.90
48936;DHT22;34745;52.276;10.528;2023-05-10T09:51:44;13.90;99.90
48936;DHT22;34745;52.276;10.528;2023-05-10T09:54:13;14.10;99.90
48936;DHT22;34745;52.276;10.528;2023-05-10T09:56:41;14.10;99.90
48936;DHT22;34745;52.276;10.528;2023-05-10T09:59:11;14.20;99.90
48936;DHT22;34745;52.276;10.528;2023-05-10T10:01:38;14.30;99.90
48936;DHT22;34745;52.276;10.528;2023-05-10T10:04:07;14.40;99.90
48936;DHT22;34745;52.276;10.528;2023-05-10T10:06:37;14.60;99.90
48936;DHT22;34745;52.276;10.528;2023-05-10T10:09:05;14.70;99.90
48936;DHT22;34745;52.276;10.528;2023-05-10T10:11:34;14.70;99.90
48936;DHT22;34745;52.276;10.528;2023-05-10T10:14:01;14.80;99.90
48936;DHT22;34745;52.276;10.528;2023-05-10T10:16:30;14.90;99.90
48936;DHT22;34745;52.276;10.528;2023-05-10T10:18:58;15.00;99.90
48936;DHT22;34745;52.276;10.528;2023-05-10T10:21:25;14.90;99.90
48936;DHT22;34745;52.276;10.528;2023-05-10T10:23:53;14.80;99.90
48936;DHT22;34745;52.276;10.528;2023-05-10T10:26:21;14.70;99.90
48936;DHT22;34745;52.276;10.528;2023-05-10T10:28:57;14.60;99.90
48936;DHT22;34745;52.276;10.528;2023-05-10T10:31:34;14.50;99.90
48936;DHT22;34745;52.276;10.528;2023-05-10T10:34:05;14.40;99.90
48936;DHT22;34745;52.276;10.528;2023-05-10T10:36:40;14.30;99.90
48936;DHT22;34745;52.276;10.528;2023-05-10T10:39:10;14.40;99.90
48936;DHT22;34745;52.276;10.528;2023-05-10T10:41:40;14.40;99.90
48936;DHT22;34745;52.276;10.528;2023-05-10T10:44:26;14.50;99.90
48936;DHT22;34745;52.276;10.528;2023-05-10T10:47:05;14.50;99.90
48936;DHT22;34745;52.276;10.528;2023-05-10T10:49:43;14.60;99.90
48936;DHT22;34745;52.276;10.528;2023-05-10T10:52:15;14.60;99.90
48936;DHT22;34745;52.276;10.528;2023-05-10T10:54:50;14.70;99.90
48936;DHT22;34745;52.276;10.528;2023-05-10T10:57:19;14.80;99.90
48936;DHT22;34745;52.276;10.528;2023-05-10T10:59:46;14.80;99.90
48936;DHT22;34745;52.276;10.528;2023-05-10T11:02:36;14.90;99.90
48936;DHT22;34745;52.276;10.528;2023-05-10T11:05:24;15.10;99.90
48936;DHT22;34745;52.276;10.528;2023-05-10T11:07:52;15.20;99.90
48936;DHT22;34745;52.276;10.528;2023-05-10T11:10:19;15.30;99.90
48936;DHT22;34745;52.276;10.528;2023-05-10T11:12:54;15.20;99.90
48936;DHT22;34745;52.276;10.528;2023-05-10T11:15:32;15.20;99.90
48936;DHT22;34745;52.276;10.528;2023-05-10T11:18:16;15.10;99.90
48936;DHT22;34745;52.276;10.528;2023-05-10T11:20:44;15.00;99.90
48936;DHT22;34745;52.276;10.528;2023-05-10T11:23:16;15.20;99.90
48936;DHT22;34745;52.276;10.528;2023-05-10T11:25:45;15.20;99.90
48936;DHT22;34745;52.276;10.528;2023-05-10T11:28:12;15.20;99.90
48936;DHT22;34745;52.276;10.528;2023-05-10T11:30:40;15.20;99.90
48936;DHT22;34745;52.276;10.528;2023-05-10T11:33:09;15.30;99.90
48936;DHT22;34745;52.276;10.528;2023-05-10T11:35:37;15.50;99.90
48936;DHT22;34745;52.276;10.528;2023-05-10T11:38:09;15.60;99.90
48936;DHT22;34745;52.276;10.528;2023-05-10T11:40:38;15.70;99.90
48936;DHT22;34745;52.276;10.528;2023-05-10T11:43:05;15.80;99.90
48936;DHT22;34745;52.276;10.528;2023-05-10T11:45:33;15.80;99.90
48936;DHT22;34745;52.276;10.528;2023-05-10T11:48:01;15.80;99.90
48936;DHT22;34745;52.276;10.528;2023-05-10T11:50:30;15.70;99.90
48936;DHT22;34745;52.276;10.528;2023-05-10T11:52:57;15.60;99.90
48936;DHT22;34745;52.276;10.528;2023-05-10T11:55:25;15.60;99.90
48936;DHT22;34745;52.276;10.528;2023-05-10T11:57:53;15.70;99.90
48936;DHT22;34745;52.276;10.528;2023-05-10T12:00:20;15.80;99.90
48936;DHT22;34745;52.276;10.528;2023-05-10T12:02:48;15.90;99.90
48936;DHT22;34745;52.276;10.528;2023-05-10T12:05:16;15.90;99.90
48936;DHT22;34745;52.276;10.528;2023-05-10T12:07:44;15.90;99.90
48936;DHT22;34745;52.276;10.528;2023-05-10T12:10:13;16.20;99.90
48936;DHT22;34745;52.276;10.528;2023-05-10T12:12:47;16.40;67.20
48936;DHT22;34745;52.276;10.528;2023-05-10T12:15:18;16.60;57.20
48936;DHT22;34745;52.276;10.528;2023-05-10T12:17:47;16.60;36.00
48936;DHT22;34745;52.276;10.528;2023-05-10T12:20:18;16.80;31.80
48936;DHT22;34745;52.276;10.528;2023-05-10T12:22:51;16.90;16.90
48936;DHT22;34745;52.276;10.528;2023-05-10T12:25:22;17.10;4.60
48936;DHT22;34745;52.276;10.528;2023-05-10T12:27:51;17.10;7.40
48936;DHT22;34745;52.276;10.528;2023-05-10T12:30:20;17.30;3.00
48936;DHT22;34745;52.276;10.528;2023-05-10T12:32:47;17.60;1.00
48936;DHT22;34745;52.276;10.528;2023-05-10T12:35:14;17.70;1.00
48936;DHT22;34745;52.276;10.528;2023-05-10T12:37:42;17.80;1.00
48936;DHT22;34745;52.276;10.528;2023-05-10T12:40:11;17.90;1.00
48936;DHT22;34745;52.276;10.528;2023-05-10T12:42:39;18.20;1.00
48936;DHT22;34745;52.276;10.528;2023-05-10T12:45:08;18.20;1.00
48936;DHT22;34745;52.276;10.528;2023-05-10T12:47:35;18.20;1.00
48936;DHT22;34745;52.276;10.528;2023-05-10T12:50:03;18.30;1.00
48936;DHT22;34745;52.276;10.528;2023-05-10T12:52:30;18.30;1.00
48936;DHT22;34745;52.276;10.528;2023-05-10T12:54:59;18.40;1.00
48936;DHT22;34745;52.276;10.528;2023-05-10T12:57:27;18.30;1.00
48936;DHT22;34745;52.276;10.528;2023-05-10T12:59:55;18.20;1.00
48936;DHT22;34745;52.276;10.528;2023-05-10T13:02:22;18.10;1.00
48936;DHT22;34745;52.276;10.528;2023-05-10T13:04:50;18.00;1.00
48936;DHT22;34745;52.276;10.528;2023-05-10T13:07:17;18.20;1.00
48936;DHT22;34745;52.276;10.528;2023-05-10T13:09:44;18.60;1.00
48936;DHT22;34745;52.276;10.528;2023-05-10T13:12:11;19.10;1.00
48936;DHT22;34745;52.276;10.528;2023-05-10T13:14:39;19.30;1.00
48936;DHT22;34745;52.276;10.528;2023-05-10T13:17:07;19.50;1.00
48936;DHT22;34745;52.276;10.528;2023-05-10T13:19:34;19.60;1.00
48936;DHT22;34745;52.276;10.528;2023-05-10T13:22:03;19.70;1.00
48936;DHT22;34745;52.276;10.528;2023-05-10T13:24:30;19.70;1.00
48936;DHT22;34745;52.276;10.528;2023-05-10T13:26:58;19.70;1.00
48936;DHT22;34745;52.276;10.528;2023-05-10T13:29:25;19.80;1.00
48936;DHT22;34745;52.276;10.528;2023-05-10T13:31:53;19.50;1.00
48936;DHT22;34745;52.276;10.528;2023-05-10T13:34:20;19.40;1.00
48936;DHT22;34745;52.276;10.528;2023-05-10T13:36:48;19.40;1.00
48936;DHT22;34745;52.276;10.528;2023-05-10T13:39:15;19.50;1.00
48936;DHT22;34745;52.276;10.528;2023-05-10T13:41:42;19.60;1.00
48936;DHT22;34745;52.276;10.528;2023-05-10T13:44:12;19.50;1.00
48936;DHT22;34745;52.276;10.528;2023-05-10T13:46:39;19.30;1.00
48936;DHT22;34745;52.276;10.528;2023-05-10T13:49:08;18.90;1.00
48936;DHT22;34745;52.276;10.528;2023-05-10T13:51:35;18.50;1.00
48936;DHT22;34745;52.276;10.528;2023-05-10T13:54:02;18.40;1.00
48936;DHT22;34745;52.276;10.528;2023-05-10T13:56:29;18.10;1.00
48936;DHT22;34745;52.276;10.528;2023-05-10T13:58:57;17.90;1.00
48936;DHT22;34745;52.276;10.528;2023-05-10T14:01:24;18.00;1.00
48936;DHT22;34745;52.276;10.528;2023-05-10T14:03:52;17.70;1.00
48936;DHT22;34745;52.276;10.528;2023-05-10T14:06:20;17.50;1.00
48936;DHT22;34745;52.276;10.528;2023-05-10T14:08:47;17.50;1.00
48936;DHT22;34745;52.276;10.528;2023-05-10T14:11:14;17.60;1.00
48936;DHT22;34745;52.276;10.528;2023-05-10T14:13:41;17.60;1.00
48936;DHT22;34745;52.276;10.528;2023-05-10T14:16:08;17.70;1.00
48936;DHT22;34745;52.276;10.528;2023-05-10T14:18:35;17.60;1.00
48936;DHT22;34745;52.276;10.528;2023-05-10T14:21:03;17.60;1.00
48936;DHT22;34745;52.276;10.528;2023-05-10T14:23:31;17.60;1.00
48936;DHT22;34745;52.276;10.528;2023-05-10T14:25:58;17.70;1.00
48936;DHT22;34745;52.276;10.528;2023-05-10T14:28:25;17.80;1.00
48936;DHT22;34745;52.276;10.528;2023-05-10T14:30:53;17.90;1.00
48936;DHT22;34745;52.276;10.528;2023-05-10T14:33:20;18.10;1.00
48936;DHT22;34745;52.276;10.528;2023-05-10T14:35:47;18.40;1.00
48936;DHT22;34745;52.276;10.528;2023-05-10T14:38:15;18.50;1.00
48936;DHT22;34745;52.276;10.528;2023-05-10T14:40:43;18.60;1.00
48936;DHT22;34745;52.276;10.528;2023-05-10T14:43:10;18.90;1.00
48936;DHT22;34745;52.276;10.528;2023-05-10T14:45:37;19.10;1.00
48936;DHT22;34745;52.276;10.528;2023-05-10T14:48:04;19.20;1.00
48936;DHT22;34745;52.276;10.528;2023-05-10T14:50:32;19.50;1.00
48936;DHT22;34745;52.276;10.528;2023-05-10T14:53:02;19.90;1.00
48936;DHT22;34745;52.276;10.528;2023-05-10T14:55:29;20.10;1.00
48936;DHT22;34745;52.276;10.528;2023-05-10T14:57:58;20.40;1.00
48936;DHT22;34745;52.276;10.528;2023-05-10T15:00:25;20.50;1.00
48936;DHT22;34745;52.276;10.528;2023-05-10T15:02:53;20.30;1.00
48936;DHT22;34745;52.276;10.528;2023-05-10T15:05:21;20.10;1.00
48936;DHT22;34745;52.276;10.528;2023-05-10T15:07:49;20.10;1.00
48936;DHT22;34745;52.276;10.528;2023-05-10T15:10:17;20.20;1.00
48936;DHT22;34745;52.276;10.528;2023-05-10T15:12:44;20.00;1.00
48936;DHT22;34745;52.276;10.528;2023-05-10T15:15:12;20.00;1.00
48936;DHT22;34745;52.276;10.528;2023-05-10T15:17:41;19.90;1.00
48936;DHT22;34745;52.276;10.528;2023-05-10T15:20:08;19.70;1.00
48936;DHT22;34745;52.276;10.528;2023-05-10T15:22:35;19.70;1.00
48936;DHT22;34745;52.276;10.528;2023-05-10T15:25:02;19.50;1.00
48936;DHT22;34745;52.276;10.528;2023-05-10T15:27:29;19.50;1.00
48936;DHT22;34745;52.276;10.528;2023-05-10T15:29:56;19.50;1.00
48936;DHT22;34745;52.276;10.528;2023-05-10T15:32:25;19.60;1.00
48936;DHT22;34745;52.276;10.528;2023-05-10T15:34:52;19.80;1.00